This is the latest recevied weather packets stored in our database for station/object VE3VGJ. If no packets are shown the sender has not sent any weather packets the latest 10 day(s).
| Time | Temp. | Humidity | Pressure | Rain* | Wind** | Luminosity | Snow |
|---|---|---|---|---|---|---|---|
| 1778194887 | 8.89° C | 64% | 1010.3 hPa | 0 mm | - | 65 W/m² | - |
| 1778194586 | 9.44° C | 65% | 1010 hPa | 0 mm | - | 81 W/m² | - |
| 1778194283 | 9.44° C | 65% | 1010.1 hPa | 0 mm | - | 100 W/m² | - |
| 1778193978 | 9.44° C | 65% | 1010.4 hPa | 0 mm | - | 91 W/m² | - |
| 1778193676 | 9.44° C | 65% | 1009.9 hPa | 0 mm | - | 103 W/m² | - |
| 1778193372 | 9.44° C | 64% | 1010 hPa | 0 mm | - | 111 W/m² | - |
| 1778193069 | 9.44° C | 65% | 1009.9 hPa | 0 mm | - | 130 W/m² | - |
| 1778192766 | 8.89° C | 65% | 1010 hPa | 0 mm | - | 124 W/m² | - |
| 1778192462 | 8.89° C | 67% | 1009.9 hPa | 0 mm | - | 121 W/m² | - |
| 1778192158 | 8.89° C | 67% | 1009.9 hPa | 0 mm | - | 121 W/m² | - |
| 1778191855 | 9.44° C | 67% | 1010 hPa | 0 mm | - | 122 W/m² | - |
| 1778191553 | 9.44° C | 66% | 1010.4 hPa | 0 mm | - | 140 W/m² | - |
| 1778191250 | 10° C | 63% | 1010.2 hPa | 0 mm | - | 150 W/m² | - |
| 1778190946 | 10° C | 59% | 1010.1 hPa | 0 mm | - | 140 W/m² | - |
| 1778190644 | 10° C | 62% | 1010.1 hPa | 0 mm | - | 176 W/m² | - |
| 1778190341 | 10° C | 63% | 1010.1 hPa | 0 mm | - | 277 W/m² | - |
| 1778190037 | 9.44° C | 66% | 1010.2 hPa | 0 mm | - | 167 W/m² | - |
| 1778189733 | 10° C | 64% | 1010 hPa | 0 mm | - | 129 W/m² | - |
| 1778189431 | 10° C | 62% | 1010.1 hPa | 0 mm | - | 102 W/m² | - |
| 1778189126 | 9.44° C | 66% | 1009.9 hPa | 0 mm | - | 191 W/m² | - |
| 1778188823 | 8.89° C | 70% | 1010 hPa | 0 mm | - | 216 W/m² | - |
| 1778188520 | 8.89° C | 68% | 1010.3 hPa | 1.78 mm | - | 303 W/m² | - |
| 1778188216 | 8.33° C | 69% | 1010.2 hPa | 1.78 mm | - | 399 W/m² | - |
| 1778187914 | 9.44° C | 62% | 1010.3 hPa | 0 mm | - | 36 W/m² | - |
| 1778187610 | 9.44° C | 56% | 1010 hPa | 0 mm | - | 34 W/m² | - |
* Rain latest hour (hover to see other rain measurements)
** Current wind speed in m/s (hover to see current wind gust speed)